createdAt,value
2023-04-01T00:01:17.139Z,89.65
2023-04-01T00:03:44.010Z,89.81
2023-04-01T00:06:14.643Z,90.16
2023-04-01T00:08:41.383Z,90.48
2023-04-01T00:11:08.042Z,90.59
2023-04-01T00:13:34.721Z,90.65
2023-04-01T00:16:03.401Z,90.18
2023-04-01T00:18:31.275Z,90.07
2023-04-01T00:20:57.924Z,90.08
2023-04-01T00:23:24.558Z,90.92
2023-04-01T00:25:51.469Z,90.63
2023-04-01T00:28:20.403Z,90.29
2023-04-01T00:30:48.005Z,90.95
2023-04-01T00:33:14.948Z,90.08
2023-04-01T00:35:42.795Z,90.49
2023-04-01T00:38:09.527Z,90.36
2023-04-01T00:40:41.642Z,90.23
2023-04-01T00:43:20.285Z,90.17
2023-04-01T00:45:49.665Z,90.28
2023-04-01T00:48:23.508Z,90.81
2023-04-01T00:50:55.935Z,90.58
2023-04-01T00:53:23.905Z,91.18
2023-04-01T00:56:00.663Z,90.70
2023-04-01T00:58:30.689Z,90.40
2023-04-01T01:00:59.811Z,91.14
2023-04-01T01:03:26.682Z,90.56
2023-04-01T01:06:12.278Z,90.28
2023-04-01T01:08:44.637Z,90.70
2023-04-01T01:11:13.194Z,91.01
2023-04-01T01:13:59.461Z,90.98
2023-04-01T01:16:32.484Z,90.14
2023-04-01T01:19:13.636Z,91.05
2023-04-01T01:22:00.475Z,90.19
2023-04-01T01:24:36.075Z,90.30
2023-04-01T01:27:12.876Z,90.68
2023-04-01T01:30:13.920Z,91.11
2023-04-01T01:33:19.829Z,90.23
2023-04-01T01:35:52.804Z,90.37
2023-04-01T01:38:23.646Z,91.15
2023-04-01T01:40:54.707Z,91.02
2023-04-01T01:43:39.664Z,91.19
2023-04-01T01:46:11.741Z,90.37
2023-04-01T01:48:39.549Z,90.88
2023-04-01T01:51:06.699Z,90.74
2023-04-01T01:53:33.392Z,90.35
2023-04-01T01:56:00.122Z,90.77
2023-04-01T01:58:36.667Z,91.03
2023-04-01T02:01:06.912Z,91.17
2023-04-01T02:03:40.529Z,90.82
2023-04-01T02:06:11.902Z,91.12
2023-04-01T02:08:48.213Z,90.20
2023-04-01T02:11:20.845Z,90.23
2023-04-01T02:13:59.239Z,90.76
2023-04-01T02:16:32.644Z,90.46
2023-04-01T02:19:02.544Z,91.22
2023-04-01T02:21:33.116Z,91.18
2023-04-01T02:24:03.071Z,90.70
2023-04-01T02:26:30.650Z,90.82
2023-04-01T02:29:00.095Z,90.72
2023-04-01T02:31:26.919Z,90.63
2023-04-01T02:33:54.483Z,90.54
2023-04-01T02:36:21.798Z,90.64
2023-04-01T02:38:50.657Z,90.70
2023-04-01T02:41:17.774Z,90.75
2023-04-01T02:43:44.453Z,90.73
2023-04-01T02:46:11.204Z,90.70
2023-04-01T02:48:38.208Z,90.94
2023-04-01T02:51:04.963Z,91.20
2023-04-01T02:53:31.620Z,90.59
2023-04-01T02:55:58.293Z,91.22
2023-04-01T02:58:24.927Z,91.13
2023-04-01T03:00:51.797Z,91.48
2023-04-01T03:03:18.853Z,91.17
2023-04-01T03:05:45.534Z,90.76
2023-04-01T03:08:12.816Z,91.46
2023-04-01T03:10:39.569Z,91.14
2023-04-01T03:13:07.155Z,91.49
2023-04-01T03:15:34.083Z,91.63
2023-04-01T03:18:01.153Z,91.77
2023-04-01T03:20:27.816Z,91.50
2023-04-01T03:22:54.466Z,91.89
2023-04-01T03:25:21.415Z,91.30
2023-04-01T03:27:48.078Z,91.69
2023-04-01T03:30:14.806Z,91.96
2023-04-01T03:32:41.553Z,91.33
2023-04-01T03:35:10.557Z,91.74
2023-04-01T03:37:37.748Z,91.68
2023-04-01T03:40:04.913Z,91.53
2023-04-01T03:42:33.212Z,91.98
2023-04-01T03:45:00.124Z,91.76
2023-04-01T03:47:26.810Z,92.26
2023-04-01T03:49:53.594Z,91.60
2023-04-01T03:52:20.330Z,92.10
2023-04-01T03:54:46.984Z,91.92
2023-04-01T03:57:13.788Z,91.68
2023-04-01T03:59:40.470Z,92.03
2023-04-01T04:02:07.147Z,91.72
2023-04-01T04:04:33.856Z,92.21
2023-04-01T04:07:00.543Z,91.73
2023-04-01T04:09:27.227Z,91.79
2023-04-01T04:11:53.960Z,91.62
2023-04-01T04:14:20.603Z,92.50
2023-04-01T04:16:47.273Z,92.02
2023-04-01T04:19:13.982Z,91.65
2023-04-01T04:21:41.784Z,91.93
2023-04-01T04:24:08.775Z,91.98
2023-04-01T04:26:35.882Z,91.53
2023-04-01T04:29:03.175Z,92.56
2023-04-01T04:31:29.901Z,91.73
2023-04-01T04:33:56.646Z,92.12
2023-04-01T04:36:23.502Z,91.79
2023-04-01T04:38:50.023Z,92.49
2023-04-01T04:41:19.082Z,91.81
2023-04-01T04:43:53.959Z,92.32
2023-04-01T04:46:21.623Z,92.00
2023-04-01T04:48:48.168Z,92.07
2023-04-01T04:51:20.194Z,92.02
2023-04-01T04:53:47.834Z,92.00
2023-04-01T04:56:17.942Z,92.70
2023-04-01T04:58:44.405Z,91.78
2023-04-01T05:01:13.027Z,92.31
2023-04-01T05:03:39.821Z,92.63
2023-04-01T05:06:07.563Z,91.77
2023-04-01T05:08:34.909Z,92.65
2023-04-01T05:11:02.384Z,92.31
2023-04-01T05:13:29.220Z,92.65
2023-04-01T05:15:55.948Z,92.17
2023-04-01T05:18:22.914Z,92.88
2023-04-01T05:20:54.392Z,92.75
2023-04-01T05:23:22.689Z,92.12
2023-04-01T05:25:50.685Z,92.55
2023-04-01T05:28:17.870Z,92.74
2023-04-01T05:30:45.338Z,92.46
2023-04-01T05:33:13.351Z,92.37
2023-04-01T05:35:41.167Z,93.04
2023-04-01T05:38:08.236Z,92.33
2023-04-01T05:40:35.568Z,92.85
2023-04-01T05:43:02.122Z,93.07
2023-04-01T05:45:28.717Z,92.62
2023-04-01T05:47:55.411Z,93.11
2023-04-01T05:50:21.915Z,93.06
2023-04-01T05:52:48.397Z,93.40
2023-04-01T05:55:14.882Z,93.26
2023-04-01T05:57:41.714Z,93.26
2023-04-01T06:00:08.629Z,92.61
2023-04-01T06:02:35.162Z,92.44
2023-04-01T06:05:14.340Z,92.65
2023-04-01T06:07:40.972Z,93.37
2023-04-01T06:10:16.282Z,92.66
2023-04-01T06:13:01.485Z,93.05
2023-04-01T06:15:40.911Z,93.45
2023-04-01T06:18:54.017Z,93.33
2023-04-01T06:21:38.903Z,93.06
2023-04-01T06:24:29.500Z,92.99
2023-04-01T06:27:22.446Z,93.31
2023-04-01T06:29:59.220Z,93.42
2023-04-01T06:32:31.560Z,92.78
2023-04-01T06:35:18.790Z,92.82
2023-04-01T06:38:18.621Z,92.96
2023-04-01T06:40:57.507Z,93.21
2023-04-01T06:43:42.963Z,93.75
2023-04-01T06:46:37.452Z,93.05
2023-04-01T06:49:06.766Z,93.18
2023-04-01T06:51:46.677Z,93.26
2023-04-01T06:54:19.642Z,93.59
2023-04-01T06:56:51.672Z,93.45
2023-04-01T06:59:23.224Z,92.85
2023-04-01T07:02:06.635Z,92.90
2023-04-01T07:04:42.041Z,92.93
2023-04-01T07:07:34.203Z,93.58
2023-04-01T07:10:06.099Z,92.88
2023-04-01T07:12:32.667Z,92.93
2023-04-01T07:15:04.935Z,93.20
2023-04-01T07:17:36.362Z,93.77
2023-04-01T07:20:27.728Z,92.74
2023-04-01T07:23:03.686Z,92.88
2023-04-01T07:25:36.432Z,93.28
2023-04-01T07:28:12.969Z,93.55
2023-04-01T07:31:04.582Z,94.04
2023-04-01T07:33:57.835Z,93.47
2023-04-01T07:36:47.276Z,93.21
2023-04-01T07:39:53.450Z,93.37
2023-04-01T07:42:23.010Z,93.25
2023-04-01T07:45:08.606Z,93.49
2023-04-01T07:47:48.798Z,91.18
2023-04-01T07:50:29.855Z,90.06
2023-04-01T07:53:18.002Z,90.99
2023-04-01T07:56:01.194Z,90.94
2023-04-01T07:58:33.775Z,91.24
2023-04-01T08:01:10.075Z,92.18
2023-04-01T08:03:46.524Z,92.14
2023-04-01T08:06:26.531Z,92.61
2023-04-01T08:09:04.471Z,91.89
2023-04-01T08:11:43.481Z,92.61
2023-04-01T08:14:18.895Z,92.60
2023-04-01T08:17:03.142Z,92.37
2023-04-01T08:19:57.459Z,92.06
2023-04-01T08:22:42.659Z,91.83
2023-04-01T08:25:18.695Z,91.96
2023-04-01T08:28:06.946Z,92.14
2023-04-01T08:30:45.091Z,92.30
2023-04-01T08:33:22.473Z,92.60
2023-04-01T08:36:12.796Z,92.44
2023-04-01T08:38:55.445Z,92.72
2023-04-01T08:41:28.541Z,93.06
2023-04-01T08:44:19.726Z,92.98
2023-04-01T08:47:10.776Z,92.76
2023-04-01T08:49:48.487Z,92.92
2023-04-01T08:52:32.853Z,92.37
2023-04-01T08:55:30.394Z,92.27
2023-04-01T08:58:20.500Z,92.47
2023-04-01T09:01:17.792Z,92.83
2023-04-01T09:03:58.450Z,93.27
2023-04-01T09:06:34.337Z,92.71
2023-04-01T09:09:21.496Z,92.37
2023-04-01T09:12:24.477Z,92.03
2023-04-01T09:15:06.390Z,92.22
2023-04-01T09:17:50.974Z,91.61
2023-04-01T09:20:40.425Z,92.02
2023-04-01T09:23:34.418Z,91.71
2023-04-01T09:26:19.088Z,92.35
2023-04-01T09:29:10.858Z,91.85
2023-04-01T09:31:43.978Z,92.38
2023-04-01T09:34:39.904Z,92.38
2023-04-01T09:37:34.813Z,92.60
2023-04-01T09:40:21.275Z,93.25
2023-04-01T09:43:04.834Z,92.50
2023-04-01T09:45:36.418Z,92.43
2023-04-01T09:48:18.028Z,92.42
2023-04-01T09:51:27.588Z,92.53
2023-04-01T09:54:29.508Z,92.37
2023-04-01T09:57:16.131Z,93.04
2023-04-01T10:00:11.669Z,92.76
2023-04-01T10:02:55.141Z,93.01
2023-04-01T10:05:46.388Z,92.43
2023-04-01T10:08:26.584Z,93.00
2023-04-01T10:10:53.162Z,92.40
2023-04-01T10:13:48.262Z,92.15
2023-04-01T10:17:01.832Z,92.59
2023-04-01T10:20:02.024Z,93.00
2023-04-01T10:22:59.031Z,92.37
2023-04-01T10:25:43.357Z,92.24
2023-04-01T10:28:49.722Z,92.47
2023-04-01T10:31:51.599Z,92.17
2023-04-01T10:34:43.607Z,92.57
2023-04-01T10:37:28.920Z,92.40
2023-04-01T10:40:21.022Z,93.33
2023-04-01T10:43:07.707Z,92.94
2023-04-01T10:46:10.405Z,92.28
2023-04-01T10:49:14.551Z,92.22
2023-04-01T10:52:12.645Z,91.96
2023-04-01T10:54:57.024Z,92.55
2023-04-01T10:57:45.114Z,92.01
2023-04-01T11:00:40.320Z,92.22
2023-04-01T11:03:41.824Z,92.94
2023-04-01T11:06:52.708Z,92.14
2023-04-01T11:09:43.962Z,92.11
2023-04-01T11:12:27.123Z,91.98
2023-04-01T11:15:00.444Z,92.37
2023-04-01T11:17:46.657Z,92.36
2023-04-01T11:20:52.229Z,92.07
2023-04-01T11:23:37.419Z,92.23
2023-04-01T11:26:30.294Z,91.89
2023-04-01T11:29:05.658Z,91.76
2023-04-01T11:31:41.195Z,92.30
2023-04-01T11:34:36.306Z,92.41
2023-04-01T11:37:21.521Z,92.47
2023-04-01T11:40:03.314Z,92.83
2023-04-01T11:42:29.691Z,92.70
2023-04-01T11:45:29.543Z,93.04
2023-04-01T11:48:33.875Z,91.91
2023-04-01T11:51:32.287Z,92.52
2023-04-01T11:54:12.750Z,91.81
2023-04-01T11:56:52.759Z,91.91
2023-04-01T11:59:46.346Z,92.26
2023-04-01T12:03:02.023Z,92.40
2023-04-01T12:06:09.877Z,91.86
2023-04-01T12:09:16.116Z,92.25
2023-04-01T12:11:42.604Z,92.36
2023-04-01T12:14:20.510Z,91.88
2023-04-01T12:16:51.409Z,91.43
2023-04-01T12:19:46.000Z,92.22
2023-04-01T12:22:36.205Z,92.34
2023-04-01T12:25:20.453Z,92.19
2023-04-01T12:28:02.281Z,92.41
2023-04-01T12:30:43.479Z,92.09
2023-04-01T12:33:34.134Z,91.71
2023-04-01T12:36:12.769Z,92.03
2023-04-01T12:39:26.191Z,92.02
2023-04-01T12:42:38.425Z,91.82
2023-04-01T12:45:47.683Z,92.13
2023-04-01T12:48:22.987Z,92.25
2023-04-01T12:50:58.508Z,92.73
2023-04-01T12:54:04.110Z,92.08
2023-04-01T12:56:39.666Z,92.29
2023-04-01T12:59:15.346Z,92.17
2023-04-01T13:01:59.210Z,92.58
2023-04-01T13:04:56.901Z,91.66
2023-04-01T13:07:29.901Z,91.29
2023-04-01T13:10:08.023Z,91.03
2023-04-01T13:12:59.465Z,91.60
2023-04-01T13:15:32.244Z,91.67
2023-04-01T13:18:23.903Z,91.91
2023-04-01T13:21:14.797Z,90.98
2023-04-01T13:23:56.621Z,90.72
2023-04-01T13:26:35.714Z,90.72
2023-04-01T13:29:16.484Z,90.33
2023-04-01T13:31:53.270Z,91.42
2023-04-01T13:34:56.772Z,91.33
2023-04-01T13:37:51.662Z,91.23
2023-04-01T13:40:24.209Z,90.98
2023-04-01T13:42:56.565Z,91.48
2023-04-01T13:45:38.636Z,90.32
2023-04-01T13:48:20.022Z,90.45
2023-04-01T13:51:12.603Z,90.67
2023-04-01T13:53:57.841Z,90.13
2023-04-01T13:57:01.605Z,91.30
2023-04-01T14:00:17.740Z,91.41
2023-04-01T14:03:15.336Z,92.07
2023-04-01T14:06:03.162Z,91.72
2023-04-01T14:08:54.290Z,91.20
2023-04-01T14:11:32.142Z,90.99
2023-04-01T14:14:31.261Z,91.04
2023-04-01T14:17:28.822Z,90.41
2023-04-01T14:20:20.169Z,90.62
2023-04-01T14:23:25.155Z,90.82
2023-04-01T14:25:51.573Z,91.50
2023-04-01T14:28:45.755Z,91.22
2023-04-01T14:31:31.317Z,91.11
2023-04-01T14:34:26.104Z,91.52
2023-04-01T14:37:26.407Z,91.49
2023-04-01T14:40:18.393Z,91.84
2023-04-01T14:43:23.746Z,92.15
2023-04-01T14:46:14.727Z,91.80
2023-04-01T14:48:43.835Z,91.57
2023-04-01T14:51:17.887Z,92.15
2023-04-01T14:54:00.487Z,91.15
2023-04-01T14:57:15.901Z,91.17
2023-04-01T14:59:50.406Z,91.43
2023-04-01T15:02:46.094Z,90.71
2023-04-01T15:05:46.341Z,90.61
2023-04-01T15:08:33.618Z,90.33
2023-04-01T15:11:38.582Z,90.76
2023-04-01T15:14:40.742Z,91.10
2023-04-01T15:17:28.699Z,91.02
2023-04-01T15:20:23.094Z,90.60
2023-04-01T15:23:04.513Z,90.75
2023-04-01T15:26:01.346Z,90.55
2023-04-01T15:28:46.580Z,90.10
2023-04-01T15:31:21.281Z,90.84
2023-04-01T15:33:50.778Z,89.62
2023-04-01T15:36:36.127Z,90.45
2023-04-01T15:39:08.496Z,89.93
2023-04-01T15:42:11.802Z,89.62
2023-04-01T15:44:58.770Z,89.74
2023-04-01T15:47:25.407Z,90.54
2023-04-01T15:50:00.974Z,89.79
2023-04-01T15:52:50.030Z,90.43
2023-04-01T15:55:43.983Z,89.67
2023-04-01T15:58:35.297Z,89.50
2023-04-01T16:01:29.852Z,90.16
2023-04-01T16:04:15.312Z,89.46
2023-04-01T16:06:57.966Z,89.63
2023-04-01T16:09:54.312Z,90.05
2023-04-01T16:12:42.632Z,89.58
2023-04-01T16:15:27.838Z,88.59
2023-04-01T16:18:03.428Z,88.88
2023-04-01T16:20:50.911Z,89.58
2023-04-01T16:23:30.968Z,89.24
2023-04-01T16:26:09.283Z,90.08
2023-04-01T16:28:54.876Z,89.42
2023-04-01T16:31:25.935Z,89.75
2023-04-01T16:34:20.639Z,89.48
2023-04-01T16:36:55.759Z,90.27
2023-04-01T16:39:51.155Z,89.72
2023-04-01T16:42:32.106Z,89.13
2023-04-01T16:45:34.593Z,89.73
2023-04-01T16:48:14.533Z,89.57
2023-04-01T16:51:05.496Z,89.82
2023-04-01T16:53:43.980Z,89.44
2023-04-01T16:56:25.878Z,89.60
2023-04-01T16:58:55.338Z,89.32
2023-04-01T17:01:27.126Z,89.43
2023-04-01T17:04:08.877Z,89.62
2023-04-01T17:06:54.575Z,89.23
2023-04-01T17:09:55.372Z,89.14
2023-04-01T17:12:48.434Z,88.76
2023-04-01T17:15:23.313Z,88.84
2023-04-01T17:18:08.231Z,88.27
2023-04-01T17:20:46.936Z,88.52
2023-04-01T17:23:21.183Z,87.84
2023-04-01T17:26:05.485Z,87.51
2023-04-01T17:28:49.032Z,87.66
2023-04-01T17:31:36.654Z,88.21
2023-04-01T17:34:22.153Z,88.17
2023-04-01T17:37:30.031Z,88.39
2023-04-01T17:40:34.432Z,88.17
2023-04-01T17:43:10.272Z,88.19
2023-04-01T17:46:20.630Z,88.73
2023-04-01T17:48:55.777Z,87.84
2023-04-01T17:51:49.521Z,87.66
2023-04-01T17:54:25.685Z,88.17
2023-04-01T17:57:29.918Z,87.62
2023-04-01T18:00:30.130Z,87.74
2023-04-01T18:03:13.304Z,87.67
2023-04-01T18:05:51.501Z,88.05
2023-04-01T18:08:41.889Z,88.60
2023-04-01T18:11:40.051Z,88.53
2023-04-01T18:14:50.983Z,87.81
2023-04-01T18:17:26.596Z,88.02
2023-04-01T18:20:15.899Z,87.53
2023-04-01T18:23:03.613Z,87.29
2023-04-01T18:25:38.205Z,87.89
2023-04-01T18:28:13.522Z,87.77
2023-04-01T18:30:41.298Z,88.17
2023-04-01T18:33:22.356Z,88.07
2023-04-01T18:35:55.415Z,87.99
2023-04-01T18:38:46.527Z,87.49
2023-04-01T18:41:15.770Z,86.86
2023-04-01T18:44:19.675Z,87.54
2023-04-01T18:46:58.828Z,86.33
2023-04-01T18:49:41.888Z,85.99
2023-04-01T18:52:23.705Z,85.44
2023-04-01T18:55:22.039Z,86.16
2023-04-01T18:57:51.887Z,85.54
2023-04-01T19:00:18.345Z,85.77
2023-04-01T19:02:54.786Z,86.45
2023-04-01T19:05:32.890Z,86.38
2023-04-01T19:08:29.781Z,86.50
2023-04-01T19:11:18.568Z,86.44
2023-04-01T19:14:22.064Z,86.97
2023-04-01T19:17:06.938Z,86.68
2023-04-01T19:19:53.073Z,86.91
2023-04-01T19:22:41.301Z,86.50
2023-04-01T19:25:22.768Z,85.96
2023-04-01T19:27:56.645Z,85.85
2023-04-01T19:30:30.515Z,84.25
2023-04-01T19:33:23.185Z,83.75
2023-04-01T19:36:01.606Z,84.27
2023-04-01T19:38:35.995Z,83.91
2023-04-01T19:41:26.325Z,84.46
2023-04-01T19:44:17.364Z,83.97
2023-04-01T19:46:56.482Z,84.27
2023-04-01T19:49:26.112Z,84.43
2023-04-01T19:52:11.316Z,83.76
2023-04-01T19:54:52.930Z,82.98
2023-04-01T19:57:36.093Z,83.42
2023-04-01T20:00:24.181Z,83.12
2023-04-01T20:03:05.817Z,83.33
2023-04-01T20:05:53.768Z,83.57
2023-04-01T20:08:47.252Z,82.67
2023-04-01T20:11:24.442Z,83.62
2023-04-01T20:14:01.761Z,83.44
2023-04-01T20:17:07.308Z,83.00
2023-04-01T20:19:41.991Z,83.39
2023-04-01T20:22:26.990Z,83.67
2023-04-01T20:24:56.475Z,83.09
2023-04-01T20:27:27.869Z,83.56
2023-04-01T20:30:04.499Z,82.67
2023-04-01T20:32:40.932Z,82.57
2023-04-01T20:35:32.360Z,80.89
2023-04-01T20:38:29.905Z,80.28
2023-04-01T20:41:21.350Z,78.65
2023-04-01T20:44:12.041Z,77.56
2023-04-01T20:47:01.642Z,76.55
2023-04-01T20:49:46.594Z,76.74
2023-04-01T20:52:12.994Z,77.41
2023-04-01T20:54:57.899Z,76.98
2023-04-01T20:57:36.500Z,77.13
2023-04-01T21:00:15.451Z,77.38
2023-04-01T21:03:17.502Z,76.42
2023-04-01T21:05:56.379Z,77.38
2023-04-01T21:08:48.863Z,76.38
2023-04-01T21:11:43.443Z,76.80
2023-04-01T21:14:36.470Z,77.31
2023-04-01T21:17:14.422Z,76.92
2023-04-01T21:20:12.556Z,77.42
2023-04-01T21:22:56.247Z,78.23
2023-04-01T21:25:29.745Z,77.88
2023-04-01T21:28:21.122Z,78.00
2023-04-01T21:31:09.269Z,78.30
2023-04-01T21:33:47.716Z,76.82
2023-04-01T21:36:32.067Z,77.41
2023-04-01T21:39:34.740Z,77.07
2023-04-01T21:42:29.985Z,77.34
2023-04-01T21:45:07.195Z,77.06
2023-04-01T21:47:45.840Z,77.55
2023-04-01T21:50:40.394Z,76.91
2023-04-01T21:53:44.302Z,77.29
2023-04-01T21:56:38.272Z,78.47
2023-04-01T21:59:46.030Z,77.16
2023-04-01T22:02:33.982Z,77.88
2023-04-01T22:05:05.436Z,77.96
2023-04-01T22:07:53.408Z,77.56
2023-04-01T22:10:34.137Z,76.78
2023-04-01T22:13:10.974Z,77.56
2023-04-01T22:16:10.320Z,77.30
2023-04-01T22:18:50.251Z,77.98
2023-04-01T22:21:28.032Z,77.57
2023-04-01T22:24:09.489Z,77.39
2023-04-01T22:26:54.571Z,78.61
2023-04-01T22:29:28.196Z,78.38
2023-04-01T22:32:13.564Z,78.40
2023-04-01T22:34:44.578Z,78.59
2023-04-01T22:37:27.649Z,77.98
2023-04-01T22:40:09.479Z,78.68
2023-04-01T22:42:44.243Z,79.20
2023-04-01T22:45:13.709Z,78.80
2023-04-01T22:47:45.487Z,79.58
2023-04-01T22:50:18.721Z,79.13
2023-04-01T22:52:49.176Z,79.42
2023-04-01T22:55:25.647Z,79.44
2023-04-01T22:58:01.371Z,79.54
2023-04-01T23:00:33.270Z,80.19
2023-04-01T23:03:18.265Z,79.59
2023-04-01T23:05:56.556Z,80.45
2023-04-01T23:08:41.822Z,80.34
2023-04-01T23:11:15.144Z,80.34
2023-04-01T23:13:49.240Z,80.22
2023-04-01T23:16:19.019Z,80.22
2023-04-01T23:19:01.444Z,80.82
2023-04-01T23:21:43.562Z,81.20
2023-04-01T23:24:27.839Z,80.96
2023-04-01T23:27:17.787Z,81.07
2023-04-01T23:29:44.608Z,81.12
2023-04-01T23:32:17.938Z,81.54
2023-04-01T23:34:57.991Z,81.81
2023-04-01T23:37:25.494Z,81.56
2023-04-01T23:39:55.332Z,81.88
2023-04-01T23:42:26.132Z,82.23
2023-04-01T23:44:56.965Z,82.25
2023-04-01T23:47:34.623Z,81.58
2023-04-01T23:50:11.898Z,82.13
2023-04-01T23:52:47.461Z,82.09
2023-04-01T23:55:17.934Z,81.76
2023-04-01T23:58:03.132Z,82.17
